Impacts TAF Board INFO
FOR SITUATIONAL AWARENESS. NOT TO BE USED FOR FLIGHT PLANNING PURPOSES.
IDs:

KBWI - Baltimore-Washington, MD, US

Issued at 0332 UTC 20 Feb 2018
Updated at 0347 UTC 20 Feb 2018
Potential Impact None Slight Moderate High
Time0344Z 20/04Z 20/05Z 20/06Z 20/07Z 20/08Z 20/09Z 20/10Z 20/11Z 20/12Z 20/13Z 20/14Z 20/15Z 20/16Z>>
Type OBS PRVL
  [TEMP]  
PRVL
  [TEMP]  
PRVL PRVL PRVL PRVL PRVL PRVL PRVL PRVL PRVL PRVL PRVL
VIS 4 2
  [3]  
2
  [3]  
2 2 2 2 2 2 2 2 2 2 2
CIG 9 8
  [18]  
8
  [18]  
8 8 8 8 8 8 8 8 8 8 8
Cover OVC OVC
  [OVC]  
OVC
  [OVC]  
OVC OVC OVC OVC OVC OVC OVC OVC BKN BKN BKN
FltCat IFR IFR
  [MVFR]  
IFR
  [MVFR]  
IFR IFR IFR IFR IFR IFR IFR IFR IFR IFR IFR
WX BR -DZ BR
  [BR]  
-DZ BR
  [BR]  
-DZ BR -DZ BR -DZ BR -DZ BR -DZ BR -DZ BR -DZ BR -DZ BR BR BR BR
WDir VRB VRB
[VRB]
VRB
[VRB]
VRB VRB VRB VRB VRB VRB VRB VRB 220 220 220
WSpd 0 3
  [3]  
3
  [3]  
3 3 3 3 3 3 3 3 6 6 6
WGst -- --
  [--]  
--
  [--]  
-- -- -- -- -- -- -- -- -- -- --

Raw TAF
KBWI 200332Z 2004/2106 VRB03KT 2SM -DZ BR OVC008 WS020/23035KT
  TEMPO 2004/2006 3SM BR OVC018
  FM201400 22006KT 2SM BR BKN008 BKN015
  FM201700 21009KT P6SM BKN015 BKN030
  FM201900 21010G17KT P6SM FEW030 SCT150
  FM210500 21006KT P6SM FEW020 SCT250


Raw METAR
KBWI 200344Z 00000KT 4SM BR BKN009 OVC015 07/07 A3034 RMK AO2 T00720072
KBWI 200254Z 00000KT 3SM BR SCT009 OVC018 07/07 A3034 RMK AO2 SLP273 60000 T00720072 50001
KBWI 200244Z 00000KT 2SM BR BKN008 OVC018 07/07 A3034 RMK AO2 T00720072
KBWI 200224Z 00000KT 1 3/4SM BR OVC007 07/07 A3034 RMK AO2 T00670067
KBWI 200154Z 00000KT 3/4SM R10/3500V4500FT BR VV004 07/07 A3035 RMK AO2 SLP276 T00670067
KBWI 200054Z 00000KT 1/4SM R10/2400V2600FT FG VV003 07/07 A3034 RMK AO2 DZE52 SLP274 P0000 T00670067

METAR Board
Radar Display
Forecast Discussion

FOR SITUATIONAL AWARENESS. NOT TO BE USED FOR FLIGHT PLANNING PURPOSES.